Terminal Aerodrome Forecast
Issued by NWS

Home | Current Version | Previous Version | Graphics & Text | Print | Product List | Glossary Off
Versions: 1 2 3 4 5 6 7 8 9 10 11 12

000
FTUS43 KDDC 201720
TAFGCK
TAF
KGCK 201720Z 2018/2118 21017G24KT P6SM SKC
     FM201900 19019G29KT P6SM SCT080
     FM210000 18015G25KT P6SM SKC
     FM210300 18010KT P6SM SKC
     FM210600 18010KT P6SM SKC WS020/20040KT
     FM211200 18009KT P6SM SKC
     FM211500 21015G25KT P6SM SKC=

USA.gov is the U.S. government's official web portal to all federal, state and local government web resources and services.